Terminal Aerodrome Forecast
Issued by NWS Quad Cities IA IL

Home | Current Version | Previous Version | Text Only | Print | Product List | Glossary On
Versions: 1 2 3 4 5 6 7 8 9 10 11 12 13 14 15 16 17 18
000
FTUS43 KDVN 201200 AAA
TAFMLI
TAF AMD
KMLI 201204Z 2012/2112 24005KT 5SM BR BKN060 BKN100
     FM201700 25011KT P6SM VCTS SCT015 BKN050CB
     FM202000 27012G18KT P6SM SCT050
     FM210000 28005KT P6SM SKC=

USA.gov is the U.S. government's official web portal to all federal, state and local government web resources and services.